FlightSource - Aviation Photo Database

World Wide Airport Lookup


Search by ICAO
Or
Search by City

FlightSource.ca - Aviation Photo Database - Torino / Caselle International Airport Information
Airport Identification
Name: Torino / Caselle International Airport
ICAO: LIMF
IATA: TRN
Airport Location
City: Torino
Region: 21
Country: Italy
Continent: Europe
Latitude: 45.2008
Longitude: 7.64963
Airport Information
Type: Large Airport
Elevation: 989 Feet ASL
Flight Status: LIMF
More Info: LIMF
Airport Weather    
Metar: LIMF 251550Z VRB02KT CAVOK 11/00 Q1021
TAF:


Advertisement